Home   Weather   Arles   Past weeks
Flag for France

Past Weather in Arles, Pyrénées-Orientales, France — August 2023

Currently: 54 °F. Sunny. (Weather station: Perpignan Airport, France). See more current weather

August 2023 Weather in Arles — Graph

°F

High & Low Weather Summary for August 2023

 TemperatureHumidityPressure
High104 °F (Aug 23, 3:00 pm)94% (Aug 12, 4:30 am)30.15 "Hg (Aug 12, 4:30 am)
Low61 °F (Aug 8, 5:30 am)20% (Aug 9, 1:00 pm)29.74 "Hg (Aug 2, 6:30 pm)
Average78 °F57%29.98 "Hg
* Reported Aug 1 12:00 am — Aug 31 11:30 pm, Arles. Weather by CustomWeather, © 2024

Note: Actual official high and low records may vary slightly from our data, if they occured in-between our weather recording intervals... More about our weather records

Arles Weather History for August 1, 2023

Scroll right to see more
 ConditionsComfort  
Time TempWeatherWind HumidityBarometerVisibility
12:00 am
Tue, Aug 1
79 °FClear.16 mph42%29.92 "Hg10 mi
12:30 am79 °FClear.16 mph42%29.95 "Hg10 mi
1:00 am77 °FClear.14 mph47%29.95 "Hg10 mi
1:30 am77 °FClear.12 mph47%29.95 "Hg10 mi
3:00 am75 °FClear.10 mph54%29.92 "Hg10 mi
3:30 am75 °FClear.14 mph54%29.92 "Hg10 mi
4:00 am75 °FClear.13 mph54%29.92 "Hg10 mi
4:30 am73 °FClear.12 mph61%29.92 "Hg10 mi
5:00 am73 °FClear.14 mph57%29.89 "Hg10 mi
5:30 am72 °FClear.16 mph61%29.92 "Hg10 mi
6:00 am72 °FClear.16 mph53%29.92 "Hg10 mi
6:30 am70 °FClear.17 mph64%29.92 "Hg10 mi
7:00 am70 °FSunny.15 mph64%29.92 "Hg10 mi
7:30 am70 °FSunny.15 mph60%29.92 "Hg10 mi
8:00 am72 °FSunny.15 mph53%29.92 "Hg10 mi
8:30 am73 °FSunny.12 mph50%29.92 "Hg10 mi
9:00 am75 °FPassing clouds.10 mph47%29.95 "HgN/A
9:30 am75 °FSunny.15 mph47%29.92 "Hg10 mi
10:00 am75 °FSunny.16 mph47%29.92 "Hg10 mi
11:00 am79 °FSunny.20 mph37%29.92 "Hg10 mi
11:30 am81 °FSunny.18 mph34%29.89 "Hg10 mi
12:00 pm82 °FSunny.16 mph32%29.89 "Hg10 mi
12:30 pm86 °FPassing clouds.16 mph35%29.89 "HgN/A
1:00 pm88 °FSunny.21 mph33%29.89 "Hg10 mi
1:30 pm86 °FSunny.21 mph38%29.89 "Hg10 mi
2:00 pm86 °FSunny.16 mph38%29.86 "Hg10 mi
2:30 pm88 °FPassing clouds.16 mph40%29.86 "HgN/A
3:00 pm90 °FPassing clouds.18 mph41%29.86 "HgN/A
4:00 pm86 °FPassing clouds.23 mph46%29.86 "HgN/A
4:30 pm88 °FPassing clouds.24 mph43%29.86 "HgN/A
5:00 pm88 °FPassing clouds.22 mph43%29.86 "HgN/A
5:30 pm88 °FScattered clouds.22 mph43%29.86 "HgN/A
6:00 pm88 °FPassing clouds.21 mph40%29.83 "HgN/A
6:30 pm88 °FPassing clouds.16 mph40%29.83 "HgN/A
7:00 pm88 °FPassing clouds.16 mph43%29.83 "HgN/A
7:30 pm86 °FScattered clouds.16 mph43%29.83 "HgN/A
8:00 pm86 °FSunny.16 mph43%29.83 "Hg10 mi
8:30 pm84 °FPassing clouds.16 mph45%29.86 "HgN/A
9:00 pm82 °FSunny.15 mph48%29.86 "Hg10 mi
10:00 pm81 °FClear.16 mph54%29.89 "Hg10 mi
10:30 pm81 °FPassing clouds.10 mph54%29.89 "HgN/A
11:00 pm79 °FPassing clouds.12 mph54%29.89 "HgN/A
11:30 pm79 °FPassing clouds.13 mph54%29.89 "HgN/A
Weather by CustomWeather, © 2024

See weather overview